createdAt,value
2018-07-12T00:00:26.077Z,77.78
2018-07-12T00:01:06.537Z,77.44
2018-07-12T00:01:46.952Z,77.31
2018-07-12T00:02:27.389Z,77.21
2018-07-12T00:03:07.758Z,77.5
2018-07-12T00:03:48.303Z,77.4
2018-07-12T00:04:28.621Z,77.73
2018-07-12T00:05:09.115Z,76.73
2018-07-12T00:05:49.427Z,77.63
2018-07-12T00:06:30.606Z,77.34
2018-07-12T00:07:11.052Z,77.4
2018-07-12T00:07:51.467Z,77.4
2018-07-12T00:08:32.084Z,77.78
2018-07-12T00:09:12.429Z,77.21
2018-07-12T00:09:52.817Z,77.53
2018-07-12T00:10:33.232Z,77.5
2018-07-12T00:11:13.829Z,77.53
2018-07-12T00:11:54.137Z,77.53
2018-07-12T00:12:34.458Z,77.34
2018-07-12T00:13:14.951Z,77.44
2018-07-12T00:13:55.275Z,77.4
2018-07-12T00:14:35.645Z,77.21
2018-07-12T00:15:16.063Z,77.83
2018-07-12T00:15:56.533Z,77.21
2018-07-12T00:16:36.900Z,77.53
2018-07-12T00:17:17.515Z,77.53
2018-07-12T00:17:57.971Z,77.78
2018-07-12T00:18:38.412Z,77.88
2018-07-12T00:19:18.905Z,77.69
2018-07-12T00:19:59.445Z,77.4
2018-07-12T00:20:39.769Z,77.98
2018-07-12T00:21:20.209Z,77.78
2018-07-12T00:22:00.560Z,77.98
2018-07-12T00:22:40.934Z,77.98
2018-07-12T00:23:21.378Z,77.98
2018-07-12T00:24:01.773Z,77.98
2018-07-12T00:24:42.296Z,77.59
2018-07-12T00:25:23.012Z,78.46
2018-07-12T00:26:03.266Z,78.46
2018-07-12T00:26:43.816Z,78.27
2018-07-12T00:27:24.089Z,78.36
2018-07-12T00:28:04.454Z,78.85
2018-07-12T00:28:48.104Z,78.56
2018-07-12T00:29:27.800Z,78.27
2018-07-12T00:30:08.170Z,78.56
2018-07-12T00:30:48.634Z,78.56
2018-07-12T00:31:28.981Z,78.65
2018-07-12T00:32:09.427Z,78.17
2018-07-12T00:32:50.246Z,78.36
2018-07-12T00:33:30.465Z,78.36
2018-07-12T00:34:10.904Z,78.94
2018-07-12T00:34:51.720Z,78.94
2018-07-12T00:35:31.985Z,78.85
2018-07-12T00:36:12.434Z,78.56
2018-07-12T00:36:52.838Z,78.94
2018-07-12T00:37:33.229Z,78.85
2018-07-12T00:38:13.722Z,78.75
2018-07-12T00:38:54.208Z,78.85
2018-07-12T00:39:34.651Z,79.13
2018-07-12T00:40:15.114Z,78.94
2018-07-12T00:40:55.452Z,78.85
2018-07-12T00:41:35.956Z,78.75
2018-07-12T00:42:16.432Z,78.75
2018-07-12T00:42:56.835Z,78.85
2018-07-12T00:43:37.197Z,78.85
2018-07-12T00:44:17.682Z,78.75
2018-07-12T00:44:58.101Z,78.85
2018-07-12T00:45:38.535Z,79.03
2018-07-12T00:46:18.967Z,78.85
2018-07-12T00:46:59.602Z,79.13
2018-07-12T00:47:39.856Z,79.23
2018-07-12T00:48:20.351Z,79.23
2018-07-12T00:49:00.814Z,79.03
2018-07-12T00:49:41.310Z,79.43
2018-07-12T00:50:21.700Z,79.03
2018-07-12T00:51:02.421Z,79.52
2018-07-12T00:51:42.870Z,79.61
2018-07-12T00:52:25.247Z,79.43
2018-07-12T00:53:04.003Z,79.71
2018-07-12T00:53:44.124Z,78.94
2018-07-12T00:54:24.533Z,79.03
2018-07-12T00:55:04.997Z,79.03
2018-07-12T00:55:45.449Z,79.71
2018-07-12T00:56:25.988Z,78.85
2018-07-12T00:57:06.561Z,78.85
2018-07-12T00:57:46.815Z,79.13
2018-07-12T00:58:27.220Z,79.03
2018-07-12T00:59:07.614Z,79.23
2018-07-12T00:59:48.172Z,78.85
2018-07-12T01:00:28.451Z,78.75
2018-07-12T01:01:08.933Z,78.65
2018-07-12T01:01:49.271Z,79.13
2018-07-12T01:02:29.669Z,78.65
2018-07-12T01:03:10.090Z,79.23
2018-07-12T01:03:50.560Z,78.94
2018-07-12T01:04:30.937Z,78.46
2018-07-12T01:05:11.461Z,78.94
2018-07-12T01:05:51.705Z,78.85
2018-07-12T01:06:32.065Z,78.56
2018-07-12T01:07:12.592Z,78.94
2018-07-12T01:07:53.541Z,78.75
2018-07-12T01:08:33.516Z,78.56
2018-07-12T01:09:13.951Z,79.03
2018-07-12T01:09:54.214Z,78.85
2018-07-12T01:10:34.690Z,78.56
2018-07-12T01:11:15.081Z,78.85
2018-07-12T01:11:55.534Z,78.75
2018-07-12T01:12:35.853Z,78.85
2018-07-12T01:13:16.264Z,79.13
2018-07-12T01:13:56.947Z,78.85
2018-07-12T01:14:37.252Z,78.94
2018-07-12T01:15:17.648Z,78.65
2018-07-12T01:15:58.055Z,79.13
2018-07-12T01:16:38.475Z,79.13
2018-07-12T01:17:18.968Z,78.85
2018-07-12T01:17:59.332Z,79.61
2018-07-12T01:18:40.034Z,79.43
2018-07-12T01:19:20.467Z,79.61
2018-07-12T01:20:00.796Z,78.85
2018-07-12T01:20:41.237Z,79.61
2018-07-12T01:21:21.620Z,79.23
2018-07-12T01:22:01.999Z,78.94
2018-07-12T01:22:42.414Z,78.94
2018-07-12T01:23:22.981Z,79.43
2018-07-12T01:24:03.346Z,79.33
2018-07-12T01:24:43.737Z,79.03
2018-07-12T01:25:24.292Z,79.81
2018-07-12T01:26:04.603Z,79.61
2018-07-12T01:26:45.273Z,80.1
2018-07-12T01:27:25.382Z,79.9
2018-07-12T01:28:05.874Z,79.33
2018-07-12T01:28:46.276Z,79.52
2018-07-12T01:29:26.708Z,79.43
2018-07-12T01:30:07.141Z,79.33
2018-07-12T01:30:47.631Z,79.81
2018-07-12T01:31:28.022Z,79.52
2018-07-12T01:32:08.409Z,79.33
2018-07-12T01:32:48.850Z,79.52
2018-07-12T01:33:29.204Z,79.43
2018-07-12T01:35:46.883Z,79.13
2018-07-12T01:36:27.925Z,79.52
2018-07-12T01:37:08.348Z,79.61
2018-07-12T01:37:48.655Z,79.38
2018-07-12T01:38:29.028Z,79.58
2018-07-12T01:39:09.503Z,79.77
2018-07-12T01:39:49.882Z,79.67
2018-07-12T01:40:30.241Z,79.86
2018-07-12T01:41:10.694Z,79.86
2018-07-12T01:41:51.079Z,79.96
2018-07-12T01:42:31.517Z,80.06
2018-07-12T01:43:11.919Z,80.15
2018-07-12T01:43:52.276Z,80.06
2018-07-12T01:44:32.776Z,79.77
2018-07-12T01:45:13.181Z,80.25
2018-07-12T01:45:53.489Z,80.25
2018-07-12T01:46:33.925Z,79.96
2018-07-12T01:47:14.361Z,79.86
2018-07-12T01:47:55.116Z,80.06
2018-07-12T01:48:35.566Z,80.15
2018-07-12T01:49:16.022Z,79.96
2018-07-12T01:49:56.264Z,79.67
2018-07-12T01:50:36.677Z,79.28
2018-07-12T01:51:17.196Z,79.77
2018-07-12T01:51:57.506Z,79.38
2018-07-12T01:52:37.937Z,79.38
2018-07-12T01:53:18.414Z,79.58
2018-07-12T01:53:58.762Z,80.06
2018-07-12T01:54:39.174Z,79.96
2018-07-12T01:55:19.822Z,79.67
2018-07-12T01:55:59.944Z,79.96
2018-07-12T01:56:40.369Z,79.86
2018-07-12T01:57:20.819Z,79.67
2018-07-12T01:58:01.334Z,80.06
2018-07-12T01:58:41.983Z,79.77
2018-07-12T01:59:22.386Z,80.06
2018-07-12T02:00:02.881Z,79.86
2018-07-12T02:00:43.318Z,79.96
2018-07-12T02:01:23.865Z,79.86
2018-07-12T02:02:04.464Z,80.06
2018-07-12T02:02:44.664Z,80.15
2018-07-12T02:03:25.050Z,80.06
2018-07-12T02:04:05.519Z,80.06
2018-07-12T02:04:45.900Z,80.35
2018-07-12T02:05:26.308Z,80.25
2018-07-12T02:06:06.684Z,80.06
2018-07-12T02:06:47.123Z,79.96
2018-07-12T02:07:27.531Z,79.67
2018-07-12T02:08:07.932Z,79.86
2018-07-12T02:08:48.380Z,79.96
2018-07-12T02:09:28.768Z,79.96
2018-07-12T02:10:09.198Z,79.86
2018-07-12T02:10:49.632Z,79.1
2018-07-12T02:11:29.980Z,79.33
2018-07-12T02:12:10.433Z,79.86
2018-07-12T02:12:50.899Z,79.58
2018-07-12T02:13:31.443Z,79.48
2018-07-12T02:14:11.810Z,79.38
2018-07-12T02:14:52.221Z,79.19
2018-07-12T02:15:32.608Z,80.06
2018-07-12T02:16:13.022Z,79.77
2018-07-12T02:16:53.591Z,79.86
2018-07-12T02:17:33.986Z,79.86
2018-07-12T02:18:14.402Z,80
2018-07-12T02:18:54.702Z,80.15
2018-07-12T02:19:35.096Z,79.38
2018-07-12T02:20:15.526Z,79.71
2018-07-12T02:20:55.956Z,79.86
2018-07-12T02:21:36.385Z,80.06
2018-07-12T02:22:16.816Z,79.23
2018-07-12T02:22:57.203Z,79.58
2018-07-12T02:23:37.615Z,79.67
2018-07-12T02:24:18.095Z,80.06
2018-07-12T02:24:58.506Z,80.06
2018-07-12T02:25:38.818Z,80.44
2018-07-12T02:26:19.381Z,80.54
2018-07-12T02:26:59.912Z,80.35
2018-07-12T02:27:40.272Z,80.35
2018-07-12T02:28:20.684Z,80.63
2018-07-12T02:29:01.056Z,80.44
2018-07-12T02:29:41.403Z,80.83
2018-07-12T02:30:21.844Z,80.44
2018-07-12T02:31:02.315Z,80.54
2018-07-12T02:31:42.660Z,80.92
2018-07-12T02:32:23.174Z,80.92
2018-07-12T02:33:03.569Z,80.83
2018-07-12T02:33:45.122Z,80.73
2018-07-12T02:35:59.453Z,79.96
2018-07-12T02:36:39.498Z,80.25
2018-07-12T02:37:20.145Z,80.44
2018-07-12T02:38:00.495Z,80.73
2018-07-12T02:38:40.925Z,80.06
2018-07-12T02:39:21.346Z,80.44
2018-07-12T02:40:01.877Z,80.06
2018-07-12T02:40:42.259Z,80.06
2018-07-12T02:41:22.646Z,80.06
2018-07-12T02:42:03.054Z,80.15
2018-07-12T02:42:43.438Z,80.06
2018-07-12T02:43:23.997Z,80.15
2018-07-12T02:44:04.268Z,79.96
2018-07-12T02:44:44.755Z,80.15
2018-07-12T02:45:25.129Z,80.35
2018-07-12T02:46:05.528Z,79.96
2018-07-12T02:46:46.001Z,79.96
2018-07-12T02:47:26.391Z,79.9
2018-07-12T02:48:06.901Z,80.1
2018-07-12T02:48:47.156Z,80.1
2018-07-12T02:49:27.726Z,79.96
2018-07-12T02:50:08.160Z,79.9
2018-07-12T02:50:48.430Z,80.1
2018-07-12T02:51:28.846Z,80
2018-07-12T02:52:09.280Z,80.29
2018-07-12T02:52:49.704Z,80.1
2018-07-12T02:53:30.112Z,79.71
2018-07-12T02:54:10.482Z,80.1
2018-07-12T02:54:50.903Z,80.19
2018-07-12T02:55:31.321Z,80.29
2018-07-12T02:56:11.654Z,80.1
2018-07-12T02:56:52.086Z,80.19
2018-07-12T02:57:32.521Z,80
2018-07-12T02:58:12.869Z,80.1
2018-07-12T02:58:53.364Z,80
2018-07-12T02:59:33.679Z,80.1
2018-07-12T03:00:14.101Z,80.38
2018-07-12T03:00:54.505Z,80.1
2018-07-12T03:01:34.883Z,80.19
2018-07-12T03:02:15.287Z,80.19
2018-07-12T03:02:55.831Z,80.1
2018-07-12T03:03:36.058Z,80.1
2018-07-12T03:04:16.603Z,80.1
2018-07-12T03:04:56.963Z,80.29
2018-07-12T03:05:37.339Z,80.38
2018-07-12T03:06:17.804Z,80.48
2018-07-12T03:06:58.215Z,80.48
2018-07-12T03:07:38.680Z,80.06
2018-07-12T03:08:19.183Z,80.35
2018-07-12T03:08:59.463Z,80.25
2018-07-12T03:09:39.875Z,80.35
2018-07-12T03:10:20.235Z,80.35
2018-07-12T03:11:00.666Z,80.38
2018-07-12T03:11:41.069Z,80.63
2018-07-12T03:12:21.434Z,80.44
2018-07-12T03:13:01.876Z,80.35
2018-07-12T03:13:42.288Z,80.44
2018-07-12T03:14:22.681Z,80.35
2018-07-12T03:15:03.039Z,80.35
2018-07-12T03:15:43.547Z,80.54
2018-07-12T03:16:23.998Z,80.06
2018-07-12T03:17:04.447Z,79.96
2018-07-12T03:17:44.745Z,80.29
2018-07-12T03:18:25.173Z,79.96
2018-07-12T03:19:05.574Z,79.86
2018-07-12T03:19:46.025Z,79.9
2018-07-12T03:20:26.413Z,80.1
2018-07-12T03:21:06.921Z,80.06
2018-07-12T03:21:47.155Z,80.06
2018-07-12T03:22:27.583Z,80.06
2018-07-12T03:23:07.936Z,79.86
2018-07-12T03:23:48.342Z,80.44
2018-07-12T03:24:28.770Z,80.54
2018-07-12T03:25:09.394Z,80.54
2018-07-12T03:25:49.718Z,81.02
2018-07-12T03:26:30.133Z,81.12
2018-07-12T03:27:10.542Z,80.83
2018-07-12T03:27:50.897Z,80.92
2018-07-12T03:28:31.349Z,81.02
2018-07-12T03:30:46.943Z,80.63
2018-07-12T03:32:49.828Z,81.02
2018-07-12T03:33:30.188Z,81.4
2018-07-12T03:34:11.241Z,81.6
2018-07-12T03:34:51.780Z,81.88
2018-07-12T03:35:32.033Z,80.83
2018-07-12T03:36:12.465Z,81.5
2018-07-12T03:36:52.833Z,81.21
2018-07-12T03:37:33.301Z,81.5
2018-07-12T03:38:13.817Z,81.7
2018-07-12T03:38:54.139Z,81.88
2018-07-12T03:39:34.483Z,81.79
2018-07-12T03:40:15.020Z,81.79
2018-07-12T03:40:55.525Z,81.88
2018-07-12T03:41:35.800Z,81.79
2018-07-12T03:42:16.764Z,81.88
2018-07-12T03:42:57.104Z,81.98
2018-07-12T03:43:37.882Z,81.88
2018-07-12T03:44:18.089Z,81.7
2018-07-12T03:44:58.845Z,81.98
2018-07-12T03:45:39.100Z,81.79
2018-07-12T03:46:19.578Z,81.7
2018-07-12T03:47:00.210Z,81.98
2018-07-12T03:47:42.123Z,82.27
2018-07-12T03:48:22.307Z,82.17
2018-07-12T03:49:02.967Z,82.27
2018-07-12T03:49:43.307Z,82.37
2018-07-12T03:50:24.043Z,82.37
2018-07-12T03:51:04.499Z,82.81
2018-07-12T03:51:45.182Z,82.81
2018-07-12T03:52:25.496Z,82.52
2018-07-12T03:53:05.812Z,82.81
2018-07-12T03:53:46.315Z,82.81
2018-07-12T03:54:27.111Z,83.29
2018-07-12T03:55:07.041Z,82.75
2018-07-12T03:55:47.688Z,83.09
2018-07-12T03:56:28.285Z,82.9
2018-07-12T03:57:08.643Z,83.09
2018-07-12T03:57:49.003Z,82.71
2018-07-12T03:58:29.490Z,83
2018-07-12T03:59:09.992Z,82.71
2018-07-12T03:59:50.313Z,83.09
2018-07-12T04:00:30.996Z,82.42
2018-07-12T04:01:11.510Z,82.27
2018-07-12T04:01:54.474Z,82.32
2018-07-12T04:02:34.933Z,82.37
2018-07-12T04:03:15.248Z,82.46
2018-07-12T04:03:55.677Z,82.94
2018-07-12T04:42:24.581Z,79.9
2018-07-12T04:43:04.991Z,79.33
2018-07-12T04:43:45.306Z,79.52
2018-07-12T04:45:35.588Z,79.13
2018-07-12T04:46:15.947Z,78.69
2018-07-12T04:46:56.373Z,78.98
2018-07-12T04:47:36.777Z,78.21
2018-07-12T04:48:17.141Z,78.31
2018-07-12T04:48:57.590Z,78.21
2018-07-12T04:49:37.943Z,78.31
2018-07-12T04:50:18.369Z,78.02
2018-07-12T04:50:58.773Z,78.21
2018-07-12T04:51:39.203Z,78.21
2018-07-12T04:52:19.602Z,77.63
2018-07-12T04:52:59.980Z,77.48
2018-07-12T04:53:40.398Z,77
2018-07-12T04:54:20.850Z,76.8
2018-07-12T04:55:01.215Z,76.42
2018-07-12T04:55:41.644Z,76.03
2018-07-12T04:56:22.089Z,75.55
2018-07-12T04:57:02.485Z,75.26
2018-07-12T04:57:42.880Z,74.88
2018-07-12T04:58:23.506Z,75.07
2018-07-12T04:59:03.704Z,74.62
2018-07-12T04:59:44.154Z,74.43
2018-07-12T05:00:24.564Z,73.75
2018-07-12T05:01:04.884Z,74.14
2018-07-12T05:01:45.329Z,73.41
2018-07-12T05:02:25.730Z,72.92
2018-07-12T05:03:06.114Z,72.44
2018-07-12T05:03:46.539Z,72.15
2018-07-12T05:04:26.950Z,71.48
2018-07-12T05:05:07.378Z,71.96
2018-07-12T05:05:47.857Z,71.96
2018-07-12T05:06:28.203Z,71.8
2018-07-12T05:07:08.649Z,70.94
2018-07-12T05:07:49.038Z,71.22
2018-07-12T05:09:36.795Z,70.06
2018-07-12T05:10:17.123Z,69.62
2018-07-12T05:10:57.567Z,68.75
2018-07-12T05:11:38.175Z,69.07
2018-07-12T05:12:35.733Z,67.52
2018-07-12T05:13:16.134Z,67.62
2018-07-12T05:13:56.558Z,67.43
2018-07-12T05:14:36.960Z,67.43
2018-07-12T05:15:17.423Z,67.33
2018-07-12T05:15:57.755Z,67.52
2018-07-12T05:16:38.185Z,68.1
2018-07-12T05:17:18.577Z,68.55
2018-07-12T05:17:58.999Z,68.94
2018-07-12T05:18:39.404Z,68.84
2018-07-12T05:19:19.856Z,69.71
2018-07-12T05:20:00.314Z,69.58
2018-07-12T05:20:40.770Z,69.68
2018-07-12T05:21:21.199Z,69.97
2018-07-12T05:22:01.641Z,69.78
2018-07-12T05:22:41.963Z,70.16
2018-07-12T05:23:22.351Z,70.74
2018-07-12T05:24:02.756Z,70.06
2018-07-12T05:24:43.159Z,69.87
2018-07-12T05:25:23.572Z,69.42
2018-07-12T05:26:03.948Z,68.84
2018-07-12T05:26:44.445Z,68.59
2018-07-12T05:27:24.833Z,68.01
2018-07-12T05:28:05.237Z,67.43
2018-07-12T05:28:45.635Z,66.46
2018-07-12T05:29:26.030Z,66.46
2018-07-12T05:30:06.421Z,66.2
2018-07-12T05:30:46.991Z,65.53
2018-07-12T05:31:27.291Z,65.14
2018-07-12T05:32:07.674Z,64.59
2018-07-12T05:32:48.039Z,64.4
2018-07-12T05:33:28.486Z,64.01
2018-07-12T05:34:08.918Z,63.53
2018-07-12T05:34:49.319Z,63.34
2018-07-12T05:35:29.650Z,63.63
2018-07-12T05:36:10.079Z,63.92
2018-07-12T05:36:50.480Z,64.37
2018-07-12T05:37:30.937Z,64.66
2018-07-12T05:38:11.346Z,65.24
2018-07-12T05:38:51.753Z,65.53
2018-07-12T05:39:32.197Z,65.82
2018-07-12T05:40:12.615Z,65.98
2018-07-12T05:40:53.111Z,66.17
2018-07-12T05:41:33.506Z,66.46
2018-07-12T05:42:13.917Z,66.85
2018-07-12T05:42:54.350Z,67.3
2018-07-12T05:43:34.808Z,67.69
2018-07-12T05:44:15.187Z,68.46
2018-07-12T05:44:55.609Z,68.55
2018-07-12T05:45:36.114Z,68.55
2018-07-12T05:46:16.617Z,68.55
2018-07-12T05:46:57.065Z,69.39
2018-07-12T05:47:37.446Z,69.49
2018-07-12T05:48:17.866Z,69.49
2018-07-12T05:48:58.299Z,69.29
2018-07-12T05:49:38.672Z,69.58
2018-07-12T05:50:19.116Z,69.87
2018-07-12T05:50:59.570Z,69.78
2018-07-12T05:51:40.007Z,70.26
2018-07-12T05:52:20.501Z,69.78
2018-07-12T05:53:00.961Z,69.78
2018-07-12T05:53:41.378Z,69.97
2018-07-12T05:54:21.763Z,70.26
2018-07-12T05:55:02.144Z,70.61
2018-07-12T05:55:42.641Z,70.7
2018-07-12T05:56:24.082Z,70.7
2018-07-12T05:57:03.612Z,70.7
2018-07-12T05:57:44.057Z,70.9
2018-07-12T05:58:24.499Z,70.8
2018-07-12T06:01:51.389Z,72.15
2018-07-12T06:02:31.206Z,72.6
2018-07-12T06:03:15.293Z,72.5
2018-07-12T06:03:56.380Z,72.12
2018-07-12T06:04:36.579Z,72.6
2018-07-12T06:05:17.080Z,72.41
2018-07-12T06:05:59.040Z,72.21
2018-07-12T06:06:39.920Z,72.12
2018-07-12T06:07:21.433Z,72.41
2018-07-12T06:08:02.012Z,72.21
2018-07-12T06:08:43.342Z,72.21
2018-07-12T06:09:24.013Z,72.41
2018-07-12T06:10:05.703Z,72.21
2018-07-12T06:10:46.347Z,72.31
2018-07-12T06:11:27.549Z,72.02
2018-07-12T06:12:08.286Z,72.6
2018-07-12T06:12:49.146Z,72.02
2018-07-12T06:13:30.229Z,72.5
2018-07-12T06:14:10.850Z,71.73
2018-07-12T06:14:51.669Z,71.83
2018-07-12T06:15:32.156Z,72.12
2018-07-12T06:16:14.073Z,71.92
2018-07-12T06:16:55.036Z,71.83
2018-07-12T06:17:35.877Z,72.06
2018-07-12T06:18:16.583Z,71.54
2018-07-12T06:18:57.108Z,71.38
2018-07-12T06:19:39.035Z,71.19
2018-07-12T06:20:19.495Z,70.9
2018-07-12T06:21:00.833Z,71.09
2018-07-12T06:21:41.990Z,70.42
2018-07-12T06:22:22.146Z,70.7
2018-07-12T06:23:02.586Z,70.32
2018-07-12T06:23:43.103Z,70.32
2018-07-12T06:24:26.936Z,70.42
2018-07-12T06:25:08.496Z,70.42
2018-07-12T06:25:48.543Z,70.22
2018-07-12T06:26:29.267Z,69.93
2018-07-12T06:27:10.104Z,69.78
2018-07-12T06:27:51.233Z,69.58
2018-07-12T06:28:32.225Z,69.97
2018-07-12T06:29:12.917Z,69.78
2018-07-12T06:29:53.856Z,69.87
2018-07-12T06:30:34.774Z,69.2
2018-07-12T06:31:15.479Z,69.39
2018-07-12T06:31:58.298Z,69.49
2018-07-12T06:32:40.137Z,68.91
2018-07-12T06:34:54.863Z,69.04
2018-07-12T06:35:35.150Z,68.17
2018-07-12T06:36:15.565Z,68.26
2018-07-12T06:36:56.033Z,67.97
2018-07-12T06:37:36.429Z,67.4
2018-07-12T06:38:16.870Z,67.11
2018-07-12T06:38:57.312Z,67.01
2018-07-12T06:39:37.859Z,66.24
2018-07-12T06:40:18.390Z,65.98
2018-07-12T06:41:13.397Z,65.4
2018-07-12T06:41:53.849Z,65.66
2018-07-12T06:42:34.437Z,66.08
2018-07-12T06:43:14.943Z,65.78
2018-07-12T06:43:55.328Z,65.88
2018-07-12T06:44:36.539Z,66.08
2018-07-12T06:45:16.965Z,65.59
2018-07-12T06:45:57.505Z,65.75
2018-07-12T06:46:38.096Z,65.66
2018-07-12T06:47:19.899Z,65.3
2018-07-12T06:48:00.426Z,64.92
2018-07-12T06:48:41.062Z,65.01
2018-07-12T06:49:21.655Z,64.63
2018-07-12T06:50:02.076Z,64.53
2018-07-12T06:50:42.601Z,64.66
2018-07-12T06:51:23.100Z,63.95
2018-07-12T06:52:04.534Z,63.89
2018-07-12T06:52:45.001Z,63.6
2018-07-12T06:53:25.161Z,63.6
2018-07-12T06:54:06.972Z,63.6
2018-07-12T06:54:46.780Z,63.4
2018-07-12T06:55:27.276Z,63.21
2018-07-12T06:56:07.701Z,63.4
2018-07-12T06:56:48.430Z,63.5
2018-07-12T06:57:29.052Z,63.31
2018-07-12T06:59:42.589Z,62.95
2018-07-12T07:00:23.329Z,63.14
2018-07-12T07:01:03.282Z,62.66
2018-07-12T07:01:43.722Z,62.47
2018-07-12T07:02:24.192Z,63.05
2018-07-12T07:03:04.699Z,63.31
2018-07-12T07:03:45.144Z,62.92
2018-07-12T07:04:25.669Z,63.4
2018-07-12T07:05:06.063Z,63.31
2018-07-12T07:05:46.482Z,63.5
2018-07-12T07:06:26.934Z,63.31
2018-07-12T07:07:07.334Z,63.21
2018-07-12T07:07:47.768Z,63.43
2018-07-12T07:08:28.228Z,63.34
2018-07-12T07:09:09.524Z,63.24
2018-07-12T07:09:50.059Z,62.47
2018-07-12T07:10:30.568Z,62.56
2018-07-12T07:11:11.051Z,62.59
2018-07-12T07:11:51.588Z,62.08
2018-07-12T07:12:32.108Z,62.11
2018-07-12T07:13:12.555Z,61.82
2018-07-12T07:13:52.928Z,61.92
2018-07-12T07:14:34.010Z,61.63
2018-07-12T07:15:14.868Z,61.63
2018-07-12T07:15:55.678Z,61.72
2018-07-12T07:16:35.934Z,61.82
2018-07-12T07:17:16.489Z,60.85
2018-07-12T07:17:57.168Z,61.15
2018-07-12T07:18:37.591Z,61.05
2018-07-12T07:19:18.035Z,60.95
2018-07-12T07:19:58.499Z,60.95
2018-07-12T07:20:38.957Z,61.43
2018-07-12T07:21:19.418Z,61.24
2018-07-12T07:21:59.901Z,61.05
2018-07-12T07:22:41.855Z,61.43
2018-07-12T07:23:21.827Z,60.95
2018-07-12T07:24:02.235Z,61.15
2018-07-12T07:24:42.662Z,60.95
2018-07-12T07:25:23.164Z,61.05
2018-07-12T07:26:03.596Z,60.85
2018-07-12T07:26:43.941Z,61.24
2018-07-12T07:27:24.387Z,61.05
2018-07-12T07:28:04.823Z,61.15
2018-07-12T07:28:45.196Z,61.33
2018-07-12T07:29:25.697Z,61.05
2018-07-12T07:30:06.842Z,61.05
2018-07-12T07:30:47.596Z,60.95
2018-07-12T07:31:27.958Z,60.85
2018-07-12T07:32:09.387Z,60.66
2018-07-12T07:32:48.981Z,60.75
2018-07-12T07:33:29.396Z,60.47
2018-07-12T07:34:10.327Z,60.21
2018-07-12T07:34:50.597Z,60.01
2018-07-12T07:35:32.016Z,59.91
2018-07-12T07:36:11.991Z,60.21
2018-07-12T07:36:52.826Z,59.23
2018-07-12T07:37:32.968Z,59.53
2018-07-12T07:38:13.398Z,59.63
2018-07-12T07:38:53.741Z,59.72
2018-07-12T07:39:34.227Z,59.43
2018-07-12T07:40:14.991Z,59.05
2018-07-12T07:40:55.827Z,59.23
2018-07-12T07:41:35.797Z,58.95
2018-07-12T07:42:16.287Z,58.75
2018-07-12T07:42:56.772Z,58.85
2018-07-12T07:43:37.101Z,58.75
2018-07-12T07:44:17.528Z,59.05
2018-07-12T07:45:48.899Z,59.05
2018-07-12T07:46:29.315Z,59.72
2018-07-12T07:47:09.747Z,59.69
2018-07-12T07:47:50.193Z,59.31
2018-07-12T07:48:30.623Z,59.5
2018-07-12T07:49:11.048Z,60.11
2018-07-12T07:49:51.451Z,60.08
2018-07-12T07:50:31.924Z,59.5
2018-07-12T07:51:12.346Z,59.23
2018-07-12T07:51:52.796Z,58.95
2018-07-12T07:52:33.240Z,58.47
2018-07-12T07:53:13.638Z,58.85
2018-07-12T07:53:54.056Z,58.75
2018-07-12T07:54:34.470Z,58.75
2018-07-12T07:55:14.893Z,58.75
2018-07-12T07:55:55.238Z,58.27
2018-07-12T07:56:35.726Z,58.37
2018-07-12T07:57:16.338Z,58.2
2018-07-12T07:57:56.946Z,57.62
2018-07-12T07:58:37.413Z,57.53
2018-07-12T07:59:18.857Z,57.84
2018-07-12T07:59:58.419Z,57.07
2018-07-12T08:00:38.981Z,56.68
2018-07-12T08:01:19.599Z,56.97
2018-07-12T08:02:00.026Z,56.77
2018-07-12T08:02:40.523Z,56.87
2018-07-12T08:03:20.923Z,56.39
2018-07-12T08:04:01.409Z,56.49
2018-07-12T08:04:41.808Z,56.49
2018-07-12T08:05:22.263Z,56.49
2018-07-12T08:06:02.678Z,56.68
2018-07-12T08:06:43.125Z,56.87
2018-07-12T08:07:23.553Z,56.87
2018-07-12T08:08:04.038Z,57.43
2018-07-12T08:08:44.444Z,57.14
2018-07-12T08:09:27.125Z,57.04
2018-07-12T08:10:09.395Z,57.33
2018-07-12T08:10:49.926Z,57.33
2018-07-12T08:11:30.486Z,57.23
2018-07-12T08:12:10.832Z,57.04
2018-07-12T08:12:51.287Z,57.33
2018-07-12T08:13:31.697Z,57.14
2018-07-12T08:14:12.095Z,57.04
2018-07-12T08:14:52.542Z,56.77
2018-07-12T08:15:32.982Z,57.07
2018-07-12T08:16:13.410Z,56.29
2018-07-12T08:16:53.777Z,55.81
2018-07-12T08:17:34.736Z,55.81
2018-07-12T08:18:15.306Z,55.9
2018-07-12T08:18:56.037Z,55.71
2018-07-12T08:19:36.646Z,55.32
2018-07-12T08:20:17.132Z,55.32
2018-07-12T08:21:12.137Z,56
2018-07-12T08:21:52.534Z,55.32
2018-07-12T08:22:33.620Z,55.71
2018-07-12T08:23:14.357Z,55.62
2018-07-12T08:23:55.373Z,55.52
2018-07-12T08:24:36.633Z,55.71
2018-07-12T08:25:16.289Z,55.71
2018-07-12T08:25:57.193Z,55.71
2018-07-12T08:26:38.395Z,55.16
2018-07-12T08:27:18.126Z,55.26
2018-07-12T08:27:58.952Z,54.96
2018-07-12T08:28:39.577Z,55.16
2018-07-12T08:29:20.017Z,54.48
2018-07-12T08:30:00.543Z,54.67
2018-07-12T08:30:40.827Z,54.67
2018-07-12T08:31:21.420Z,55.16
2018-07-12T08:32:01.671Z,54.48
2018-07-12T08:32:42.217Z,54.38
2018-07-12T08:33:22.665Z,54.5
2018-07-12T08:34:03.040Z,54.11
2018-07-12T08:34:43.423Z,54.31
2018-07-12T08:35:23.820Z,54.21
2018-07-12T08:36:04.264Z,54.11
2018-07-12T08:36:44.693Z,53.73
2018-07-12T08:37:26.086Z,53.66
2018-07-12T08:38:06.584Z,52.98
2018-07-12T08:38:46.957Z,53.08
2018-07-12T08:39:27.541Z,53.17
2018-07-12T08:40:08.650Z,52.69
2018-07-12T08:40:49.896Z,52.4
2018-07-12T08:41:29.929Z,52.13
2018-07-12T08:42:10.321Z,51.93
2018-07-12T08:42:50.867Z,51.35
2018-07-12T08:43:31.225Z,51.18
2018-07-12T08:44:11.687Z,50.63
2018-07-12T08:44:52.100Z,49.66
2018-07-12T08:45:32.549Z,49.39
2018-07-12T08:46:13.086Z,49.49
2018-07-12T08:46:53.450Z,49.1
2018-07-12T08:47:34.937Z,48.73
2018-07-12T08:48:14.600Z,47.96
2018-07-12T08:48:55.054Z,47.66
2018-07-12T08:49:35.437Z,46.81
2018-07-12T08:50:15.925Z,47.1
2018-07-12T08:52:30.966Z,46.88
2018-07-12T08:53:12.160Z,47.37
2018-07-12T08:53:52.479Z,47.56
2018-07-12T08:54:32.965Z,47.64
2018-07-12T08:55:13.305Z,47.64
2018-07-12T08:55:53.736Z,47.64
2018-07-12T08:56:34.185Z,47.93
2018-07-12T08:57:14.583Z,48.22
2018-07-12T08:57:55.028Z,48.03
2018-07-12T08:58:35.421Z,48.71
2018-07-12T08:59:15.936Z,48.49
2018-07-12T08:59:56.669Z,48.61
2018-07-12T09:00:37.093Z,48.41
2018-07-12T09:01:17.587Z,49.19
2018-07-12T09:01:58.024Z,48.61
2018-07-12T09:02:38.437Z,48.61
2018-07-12T09:03:18.911Z,48.61
2018-07-12T09:03:59.280Z,48.71
2018-07-12T09:04:39.925Z,48.13
2018-07-12T09:05:20.353Z,47.93
2018-07-12T09:06:00.743Z,47.93
2018-07-12T09:06:41.190Z,47.93
2018-07-12T09:07:21.759Z,48.03
2018-07-12T09:08:02.100Z,47.64
2018-07-12T09:08:42.566Z,48.32
2018-07-12T09:09:23.084Z,48.03
2018-07-12T09:10:03.850Z,47.74
2018-07-12T09:10:44.353Z,48.03
2018-07-12T09:11:24.780Z,47.93
2018-07-12T09:12:05.208Z,48.32
2018-07-12T09:12:45.682Z,47.83
2018-07-12T09:13:26.141Z,47.64
2018-07-12T09:14:06.616Z,48.61
2018-07-12T09:14:47.080Z,48.22
2018-07-12T09:15:27.461Z,47.81
2018-07-12T09:16:07.843Z,48.1
2018-07-12T09:16:48.276Z,47.91
2018-07-12T09:17:28.697Z,47.91
2018-07-12T09:18:09.169Z,48.1
2018-07-12T09:18:49.632Z,48.2
2018-07-12T09:19:30.105Z,48.39
2018-07-12T09:20:10.579Z,48
2018-07-12T09:20:51.012Z,48
2018-07-12T09:21:31.417Z,48.03
2018-07-12T09:22:11.804Z,48.22
2018-07-12T09:22:52.455Z,48.58
2018-07-12T09:23:32.915Z,48.1
2018-07-12T09:24:13.347Z,48.1
2018-07-12T09:24:53.869Z,48.68
2018-07-12T09:25:35.208Z,48.49
2018-07-12T09:26:15.049Z,48.3
2018-07-12T09:26:55.517Z,48.39
2018-07-12T09:27:36.215Z,48.1
2018-07-12T09:28:16.751Z,48.2
2018-07-12T09:28:57.244Z,48.1
2018-07-12T09:30:56.810Z,48.3
2018-07-12T09:31:37.174Z,48
2018-07-12T09:32:17.685Z,48
2018-07-12T09:32:58.080Z,48.58
2018-07-12T09:33:38.610Z,48.58
2018-07-12T09:34:19.048Z,48.58
2018-07-12T09:35:01.068Z,48.58
2018-07-12T09:35:50.791Z,48.1
2018-07-12T09:36:37.064Z,48.58
2018-07-12T09:37:41.942Z,48.2
2018-07-12T09:40:08.255Z,47.42
2018-07-12T09:42:02.552Z,47.83
2018-07-12T09:42:42.894Z,47.61
2018-07-12T09:43:23.367Z,47.74
2018-07-12T09:44:03.748Z,47.44
2018-07-12T09:44:44.424Z,47.34